sensor_id;sensor_type;location;lat;lon;timestamp;temperature;humidity
52103;DHT22;38101;53.126;6.878;2022-09-01T00:01:28;16.50;99.90
52103;DHT22;38101;53.126;6.878;2022-09-01T00:03:56;16.50;99.90
52103;DHT22;38101;53.126;6.878;2022-09-01T00:06:24;16.40;99.90
52103;DHT22;38101;53.126;6.878;2022-09-01T00:08:52;16.40;99.90
52103;DHT22;38101;53.126;6.878;2022-09-01T00:11:19;16.40;99.90
52103;DHT22;38101;53.126;6.878;2022-09-01T00:13:45;16.40;99.90
52103;DHT22;38101;53.126;6.878;2022-09-01T00:16:11;16.40;99.90
52103;DHT22;38101;53.126;6.878;2022-09-01T00:18:43;16.30;99.90
52103;DHT22;38101;53.126;6.878;2022-09-01T00:21:12;16.30;99.90
52103;DHT22;38101;53.126;6.878;2022-09-01T00:23:38;16.30;99.90
52103;DHT22;38101;53.126;6.878;2022-09-01T00:26:04;16.30;99.90
52103;DHT22;38101;53.126;6.878;2022-09-01T00:28:32;16.30;99.90
52103;DHT22;38101;53.126;6.878;2022-09-01T00:30:59;16.30;99.90
52103;DHT22;38101;53.126;6.878;2022-09-01T00:33:25;16.20;99.90
52103;DHT22;38101;53.126;6.878;2022-09-01T00:35:51;16.20;99.90
52103;DHT22;38101;53.126;6.878;2022-09-01T00:38:17;16.10;99.90
52103;DHT22;38101;53.126;6.878;2022-09-01T00:40:43;16.10;99.90
52103;DHT22;38101;53.126;6.878;2022-09-01T00:43:34;16.10;99.90
52103;DHT22;38101;53.126;6.878;2022-09-01T00:46:05;16.10;99.90
52103;DHT22;38101;53.126;6.878;2022-09-01T00:48:32;16.00;99.90
52103;DHT22;38101;53.126;6.878;2022-09-01T00:50:58;16.00;99.90
52103;DHT22;38101;53.126;6.878;2022-09-01T00:53:25;16.00;99.90
52103;DHT22;38101;53.126;6.878;2022-09-01T00:55:51;16.00;99.90
52103;DHT22;38101;53.126;6.878;2022-09-01T00:58:16;15.90;99.90
52103;DHT22;38101;53.126;6.878;2022-09-01T01:00:44;15.90;99.90
52103;DHT22;38101;53.126;6.878;2022-09-01T01:03:12;15.90;99.90
52103;DHT22;38101;53.126;6.878;2022-09-01T01:05:42;15.80;99.90
52103;DHT22;38101;53.126;6.878;2022-09-01T01:08:11;15.80;99.90
52103;DHT22;38101;53.126;6.878;2022-09-01T01:10:40;15.80;99.90
52103;DHT22;38101;53.126;6.878;2022-09-01T01:13:14;15.80;99.90
52103;DHT22;38101;53.126;6.878;2022-09-01T01:15:42;15.70;99.90
52103;DHT22;38101;53.126;6.878;2022-09-01T01:18:17;15.70;99.90
52103;DHT22;38101;53.126;6.878;2022-09-01T01:20:43;15.70;99.90
52103;DHT22;38101;53.126;6.878;2022-09-01T01:23:38;15.70;99.90
52103;DHT22;38101;53.126;6.878;2022-09-01T01:26:07;15.60;99.90
52103;DHT22;38101;53.126;6.878;2022-09-01T01:28:38;15.60;99.90
52103;DHT22;38101;53.126;6.878;2022-09-01T01:31:08;15.60;99.90
52103;DHT22;38101;53.126;6.878;2022-09-01T01:33:41;15.60;99.90
52103;DHT22;38101;53.126;6.878;2022-09-01T01:36:21;15.50;99.90
52103;DHT22;38101;53.126;6.878;2022-09-01T01:38:55;15.50;99.90
52103;DHT22;38101;53.126;6.878;2022-09-01T01:41:28;15.40;99.90
52103;DHT22;38101;53.126;6.878;2022-09-01T01:44:04;15.40;99.90
52103;DHT22;38101;53.126;6.878;2022-09-01T01:46:34;15.40;99.90
52103;DHT22;38101;53.126;6.878;2022-09-01T01:49:01;15.40;99.90
52103;DHT22;38101;53.126;6.878;2022-09-01T01:51:28;15.40;99.90
52103;DHT22;38101;53.126;6.878;2022-09-01T01:53:57;15.30;99.90
52103;DHT22;38101;53.126;6.878;2022-09-01T01:56:26;15.30;99.90
52103;DHT22;38101;53.126;6.878;2022-09-01T01:58:53;15.30;99.90
52103;DHT22;38101;53.126;6.878;2022-09-01T02:01:25;15.30;99.90
52103;DHT22;38101;53.126;6.878;2022-09-01T02:03:56;15.30;99.90
52103;DHT22;38101;53.126;6.878;2022-09-01T02:06:24;15.30;99.90
52103;DHT22;38101;53.126;6.878;2022-09-01T02:08:51;15.30;99.90
52103;DHT22;38101;53.126;6.878;2022-09-01T02:11:18;15.30;99.90
52103;DHT22;38101;53.126;6.878;2022-09-01T02:13:43;15.30;99.90
52103;DHT22;38101;53.126;6.878;2022-09-01T02:16:12;15.20;99.90
52103;DHT22;38101;53.126;6.878;2022-09-01T02:18:42;15.20;99.90
52103;DHT22;38101;53.126;6.878;2022-09-01T02:21:10;15.20;99.90
52103;DHT22;38101;53.126;6.878;2022-09-01T02:23:37;15.10;99.90
52103;DHT22;38101;53.126;6.878;2022-09-01T02:26:04;15.10;99.90
52103;DHT22;38101;53.126;6.878;2022-09-01T02:28:33;15.10;99.90
52103;DHT22;38101;53.126;6.878;2022-09-01T02:31:02;15.10;99.90
52103;DHT22;38101;53.126;6.878;2022-09-01T02:33:29;15.10;99.90
52103;DHT22;38101;53.126;6.878;2022-09-01T02:35:58;15.10;99.90
52103;DHT22;38101;53.126;6.878;2022-09-01T02:38:25;15.10;99.90
52103;DHT22;38101;53.126;6.878;2022-09-01T02:40:52;15.10;99.90
52103;DHT22;38101;53.126;6.878;2022-09-01T02:43:20;15.10;99.90
52103;DHT22;38101;53.126;6.878;2022-09-01T02:45:47;15.10;99.90
52103;DHT22;38101;53.126;6.878;2022-09-01T02:48:16;15.10;99.90
52103;DHT22;38101;53.126;6.878;2022-09-01T02:50:43;15.10;99.90
52103;DHT22;38101;53.126;6.878;2022-09-01T02:53:09;15.20;99.90
52103;DHT22;38101;53.126;6.878;2022-09-01T02:55:37;15.10;99.90
52103;DHT22;38101;53.126;6.878;2022-09-01T02:58:04;15.10;99.90
52103;DHT22;38101;53.126;6.878;2022-09-01T03:00:35;15.10;99.90
52103;DHT22;38101;53.126;6.878;2022-09-01T03:03:05;15.10;99.90
52103;DHT22;38101;53.126;6.878;2022-09-01T03:05:31;15.10;99.90
52103;DHT22;38101;53.126;6.878;2022-09-01T03:08:01;15.00;99.90
52103;DHT22;38101;53.126;6.878;2022-09-01T03:10:31;15.10;99.90
52103;DHT22;38101;53.126;6.878;2022-09-01T03:12:59;15.00;99.90
52103;DHT22;38101;53.126;6.878;2022-09-01T03:15:26;15.00;99.90
52103;DHT22;38101;53.126;6.878;2022-09-01T03:17:52;15.00;99.90
52103;DHT22;38101;53.126;6.878;2022-09-01T03:20:18;14.90;99.90
52103;DHT22;38101;53.126;6.878;2022-09-01T03:22:47;14.90;99.90
52103;DHT22;38101;53.126;6.878;2022-09-01T03:25:13;14.90;99.90
52103;DHT22;38101;53.126;6.878;2022-09-01T03:27:39;14.90;99.90
52103;DHT22;38101;53.126;6.878;2022-09-01T03:30:05;14.90;99.90
52103;DHT22;38101;53.126;6.878;2022-09-01T03:32:32;14.90;99.90
52103;DHT22;38101;53.126;6.878;2022-09-01T03:34:57;14.90;99.90
52103;DHT22;38101;53.126;6.878;2022-09-01T03:37:24;14.90;99.90
52103;DHT22;38101;53.126;6.878;2022-09-01T03:39:50;14.90;99.90
52103;DHT22;38101;53.126;6.878;2022-09-01T03:42:15;14.90;99.90
52103;DHT22;38101;53.126;6.878;2022-09-01T03:44:44;14.90;99.90
52103;DHT22;38101;53.126;6.878;2022-09-01T03:47:10;14.90;99.90
52103;DHT22;38101;53.126;6.878;2022-09-01T03:49:39;14.90;99.90
52103;DHT22;38101;53.126;6.878;2022-09-01T03:52:07;14.80;99.90
52103;DHT22;38101;53.126;6.878;2022-09-01T03:54:33;14.80;99.90
52103;DHT22;38101;53.126;6.878;2022-09-01T03:56:59;14.80;99.90
52103;DHT22;38101;53.126;6.878;2022-09-01T03:59:25;14.80;99.90
52103;DHT22;38101;53.126;6.878;2022-09-01T04:01:53;14.80;99.90
52103;DHT22;38101;53.126;6.878;2022-09-01T04:04:18;14.80;99.90
52103;DHT22;38101;53.126;6.878;2022-09-01T04:06:45;14.70;99.90
52103;DHT22;38101;53.126;6.878;2022-09-01T04:09:11;14.70;99.90
52103;DHT22;38101;53.126;6.878;2022-09-01T04:11:38;14.70;99.90
52103;DHT22;38101;53.126;6.878;2022-09-01T04:14:05;14.60;99.90
52103;DHT22;38101;53.126;6.878;2022-09-01T04:16:32;14.60;99.90
52103;DHT22;38101;53.126;6.878;2022-09-01T04:19:20;14.60;99.90
52103;DHT22;38101;53.126;6.878;2022-09-01T04:21:58;14.60;99.90
52103;DHT22;38101;53.126;6.878;2022-09-01T04:24:25;14.60;99.90
52103;DHT22;38101;53.126;6.878;2022-09-01T04:26:53;14.50;99.90
52103;DHT22;38101;53.126;6.878;2022-09-01T04:29:21;14.50;99.90
52103;DHT22;38101;53.126;6.878;2022-09-01T04:31:56;14.40;99.90
52103;DHT22;38101;53.126;6.878;2022-09-01T04:34:26;14.40;99.90
52103;DHT22;38101;53.126;6.878;2022-09-01T04:36:52;14.40;99.90
52103;DHT22;38101;53.126;6.878;2022-09-01T04:39:20;14.40;99.90
52103;DHT22;38101;53.126;6.878;2022-09-01T04:41:46;14.30;99.90
52103;DHT22;38101;53.126;6.878;2022-09-01T04:44:13;14.30;99.90
52103;DHT22;38101;53.126;6.878;2022-09-01T04:46:42;14.40;99.90
52103;DHT22;38101;53.126;6.878;2022-09-01T04:49:11;14.40;99.90
52103;DHT22;38101;53.126;6.878;2022-09-01T04:51:41;14.30;99.90
52103;DHT22;38101;53.126;6.878;2022-09-01T04:54:09;14.30;99.90
52103;DHT22;38101;53.126;6.878;2022-09-01T04:56:41;14.30;99.90
52103;DHT22;38101;53.126;6.878;2022-09-01T04:59:08;14.40;99.90
52103;DHT22;38101;53.126;6.878;2022-09-01T05:01:37;14.30;99.90
52103;DHT22;38101;53.126;6.878;2022-09-01T05:04:18;14.30;99.90
52103;DHT22;38101;53.126;6.878;2022-09-01T05:06:48;14.30;99.90
52103;DHT22;38101;53.126;6.878;2022-09-01T05:09:16;14.30;99.90
52103;DHT22;38101;53.126;6.878;2022-09-01T05:11:42;14.40;99.90
52103;DHT22;38101;53.126;6.878;2022-09-01T05:14:11;14.30;99.90
52103;DHT22;38101;53.126;6.878;2022-09-01T05:16:37;14.30;99.90
52103;DHT22;38101;53.126;6.878;2022-09-01T05:19:06;14.30;99.90
52103;DHT22;38101;53.126;6.878;2022-09-01T05:21:32;14.30;99.90
52103;DHT22;38101;53.126;6.878;2022-09-01T05:23:58;14.30;99.90
52103;DHT22;38101;53.126;6.878;2022-09-01T05:26:30;14.30;99.90
52103;DHT22;38101;53.126;6.878;2022-09-01T05:29:00;14.30;99.90
52103;DHT22;38101;53.126;6.878;2022-09-01T05:31:27;14.30;99.90
52103;DHT22;38101;53.126;6.878;2022-09-01T05:33:57;14.40;99.90
52103;DHT22;38101;53.126;6.878;2022-09-01T05:36:23;14.40;99.90
52103;DHT22;38101;53.126;6.878;2022-09-01T05:38:50;14.40;99.90
52103;DHT22;38101;53.126;6.878;2022-09-01T05:41:17;14.50;99.90
52103;DHT22;38101;53.126;6.878;2022-09-01T05:43:46;14.40;99.90
52103;DHT22;38101;53.126;6.878;2022-09-01T05:46:18;14.40;99.90
52103;DHT22;38101;53.126;6.878;2022-09-01T05:48:46;14.40;99.90
52103;DHT22;38101;53.126;6.878;2022-09-01T05:51:15;14.50;99.90
52103;DHT22;38101;53.126;6.878;2022-09-01T05:53:42;14.50;99.90
52103;DHT22;38101;53.126;6.878;2022-09-01T05:56:09;14.50;99.90
52103;DHT22;38101;53.126;6.878;2022-09-01T05:58:40;14.60;99.90
52103;DHT22;38101;53.126;6.878;2022-09-01T06:01:08;14.60;99.90
52103;DHT22;38101;53.126;6.878;2022-09-01T06:03:35;14.70;99.90
52103;DHT22;38101;53.126;6.878;2022-09-01T06:06:03;14.70;99.90
52103;DHT22;38101;53.126;6.878;2022-09-01T06:08:33;14.70;99.90
52103;DHT22;38101;53.126;6.878;2022-09-01T06:11:01;14.70;99.90
52103;DHT22;38101;53.126;6.878;2022-09-01T06:13:28;14.70;99.90
52103;DHT22;38101;53.126;6.878;2022-09-01T06:15:54;14.70;99.90
52103;DHT22;38101;53.126;6.878;2022-09-01T06:18:22;14.80;99.90
52103;DHT22;38101;53.126;6.878;2022-09-01T06:20:48;14.80;99.90
52103;DHT22;38101;53.126;6.878;2022-09-01T06:23:15;14.80;99.90
52103;DHT22;38101;53.126;6.878;2022-09-01T06:25:43;14.90;99.90
52103;DHT22;38101;53.126;6.878;2022-09-01T06:28:15;14.90;99.90
52103;DHT22;38101;53.126;6.878;2022-09-01T06:30:42;15.00;99.90
52103;DHT22;38101;53.126;6.878;2022-09-01T06:33:11;15.00;99.90
52103;DHT22;38101;53.126;6.878;2022-09-01T06:35:39;15.10;99.90
52103;DHT22;38101;53.126;6.878;2022-09-01T06:38:07;15.10;99.90
52103;DHT22;38101;53.126;6.878;2022-09-01T06:40:34;15.20;99.90
52103;DHT22;38101;53.126;6.878;2022-09-01T06:43:00;15.20;99.90
52103;DHT22;38101;53.126;6.878;2022-09-01T06:45:33;15.30;99.90
52103;DHT22;38101;53.126;6.878;2022-09-01T06:48:03;15.30;99.90
52103;DHT22;38101;53.126;6.878;2022-09-01T06:50:28;15.30;99.90
52103;DHT22;38101;53.126;6.878;2022-09-01T06:52:54;15.40;99.90
52103;DHT22;38101;53.126;6.878;2022-09-01T06:55:36;15.40;99.90
52103;DHT22;38101;53.126;6.878;2022-09-01T06:58:04;15.50;99.90
52103;DHT22;38101;53.126;6.878;2022-09-01T07:00:30;15.60;99.90
52103;DHT22;38101;53.126;6.878;2022-09-01T07:02:57;15.60;99.90
52103;DHT22;38101;53.126;6.878;2022-09-01T07:05:24;15.70;99.90
52103;DHT22;38101;53.126;6.878;2022-09-01T07:07:53;15.70;99.90
52103;DHT22;38101;53.126;6.878;2022-09-01T07:10:24;15.70;99.90
52103;DHT22;38101;53.126;6.878;2022-09-01T07:12:55;15.80;99.90
52103;DHT22;38101;53.126;6.878;2022-09-01T07:15:24;15.80;99.90
52103;DHT22;38101;53.126;6.878;2022-09-01T07:17:54;15.80;99.90
52103;DHT22;38101;53.126;6.878;2022-09-01T07:20:22;15.90;99.90
52103;DHT22;38101;53.126;6.878;2022-09-01T07:22:49;15.90;99.90
52103;DHT22;38101;53.126;6.878;2022-09-01T07:25:16;16.00;99.90
52103;DHT22;38101;53.126;6.878;2022-09-01T07:27:43;16.00;99.90
52103;DHT22;38101;53.126;6.878;2022-09-01T07:30:17;16.00;99.90
52103;DHT22;38101;53.126;6.878;2022-09-01T07:32:44;16.10;99.90
52103;DHT22;38101;53.126;6.878;2022-09-01T07:35:16;16.20;99.90
52103;DHT22;38101;53.126;6.878;2022-09-01T07:37:43;16.30;99.90
52103;DHT22;38101;53.126;6.878;2022-09-01T07:40:11;16.30;99.90
52103;DHT22;38101;53.126;6.878;2022-09-01T07:42:38;16.40;99.90
52103;DHT22;38101;53.126;6.878;2022-09-01T07:45:06;16.50;99.90
52103;DHT22;38101;53.126;6.878;2022-09-01T07:47:36;16.50;99.90
52103;DHT22;38101;53.126;6.878;2022-09-01T07:50:07;16.60;99.90
52103;DHT22;38101;53.126;6.878;2022-09-01T07:52:34;16.70;99.90
52103;DHT22;38101;53.126;6.878;2022-09-01T07:55:04;16.70;99.90
52103;DHT22;38101;53.126;6.878;2022-09-01T07:57:30;16.80;99.90
52103;DHT22;38101;53.126;6.878;2022-09-01T07:59:56;16.80;99.90
52103;DHT22;38101;53.126;6.878;2022-09-01T08:02:22;16.90;99.90
52103;DHT22;38101;53.126;6.878;2022-09-01T08:04:49;16.90;99.90
52103;DHT22;38101;53.126;6.878;2022-09-01T08:07:14;16.90;99.90
52103;DHT22;38101;53.126;6.878;2022-09-01T08:09:40;16.90;99.90
52103;DHT22;38101;53.126;6.878;2022-09-01T08:12:07;17.00;99.90
52103;DHT22;38101;53.126;6.878;2022-09-01T08:14:33;17.00;99.90
52103;DHT22;38101;53.126;6.878;2022-09-01T08:16:59;17.00;99.90
52103;DHT22;38101;53.126;6.878;2022-09-01T08:19:24;17.10;99.90
52103;DHT22;38101;53.126;6.878;2022-09-01T08:21:50;17.10;99.90
52103;DHT22;38101;53.126;6.878;2022-09-01T08:24:16;17.20;99.90
52103;DHT22;38101;53.126;6.878;2022-09-01T08:26:43;17.20;99.90
52103;DHT22;38101;53.126;6.878;2022-09-01T08:29:09;17.30;99.90
52103;DHT22;38101;53.126;6.878;2022-09-01T08:31:35;17.30;99.90
52103;DHT22;38101;53.126;6.878;2022-09-01T08:34:00;17.40;99.90
52103;DHT22;38101;53.126;6.878;2022-09-01T08:36:29;17.50;99.90
52103;DHT22;38101;53.126;6.878;2022-09-01T08:38:55;17.50;99.90
52103;DHT22;38101;53.126;6.878;2022-09-01T08:42:31;17.50;99.90
52103;DHT22;38101;53.126;6.878;2022-09-01T08:47:01;17.70;99.90
52103;DHT22;38101;53.126;6.878;2022-09-01T08:49:28;17.70;99.90
52103;DHT22;38101;53.126;6.878;2022-09-01T08:54:57;17.90;99.90
52103;DHT22;38101;53.126;6.878;2022-09-01T08:57:36;18.00;99.90
52103;DHT22;38101;53.126;6.878;2022-09-01T09:00:05;18.10;99.90
52103;DHT22;38101;53.126;6.878;2022-09-01T09:05:46;18.20;99.90
52103;DHT22;38101;53.126;6.878;2022-09-01T09:14:06;18.40;99.90
52103;DHT22;38101;53.126;6.878;2022-09-01T09:16:45;18.50;99.90
52103;DHT22;38101;53.126;6.878;2022-09-01T09:21:46;18.70;99.90
52103;DHT22;38101;53.126;6.878;2022-09-01T09:24:28;18.80;99.90
52103;DHT22;38101;53.126;6.878;2022-09-01T09:27:25;18.90;99.90
52103;DHT22;38101;53.126;6.878;2022-09-01T09:29:57;18.90;99.90
52103;DHT22;38101;53.126;6.878;2022-09-01T09:32:41;19.00;99.90
52103;DHT22;38101;53.126;6.878;2022-09-01T09:37:48;19.10;99.90
52103;DHT22;38101;53.126;6.878;2022-09-01T09:40:34;19.10;99.90
52103;DHT22;38101;53.126;6.878;2022-09-01T09:43:03;19.20;99.90
52103;DHT22;38101;53.126;6.878;2022-09-01T09:45:31;19.30;99.90
52103;DHT22;38101;53.126;6.878;2022-09-01T09:47:59;19.30;99.90
52103;DHT22;38101;53.126;6.878;2022-09-01T09:50:31;19.40;99.90
52103;DHT22;38101;53.126;6.878;2022-09-01T09:58:40;19.60;99.90
52103;DHT22;38101;53.126;6.878;2022-09-01T10:03:51;19.70;99.90
52103;DHT22;38101;53.126;6.878;2022-09-01T10:06:39;19.80;99.90
52103;DHT22;38101;53.126;6.878;2022-09-01T10:11:51;19.90;99.90
52103;DHT22;38101;53.126;6.878;2022-09-01T10:14:24;20.00;99.90
52103;DHT22;38101;53.126;6.878;2022-09-01T10:17:05;20.10;99.90
52103;DHT22;38101;53.126;6.878;2022-09-01T10:19:34;20.30;99.90
52103;DHT22;38101;53.126;6.878;2022-09-01T10:22:01;20.30;99.90
52103;DHT22;38101;53.126;6.878;2022-09-01T10:24:35;20.40;99.90
52103;DHT22;38101;53.126;6.878;2022-09-01T10:27:12;20.40;99.90
52103;DHT22;38101;53.126;6.878;2022-09-01T10:32:38;20.50;99.90
52103;DHT22;38101;53.126;6.878;2022-09-01T10:35:06;20.50;99.90
52103;DHT22;38101;53.126;6.878;2022-09-01T10:37:33;20.50;99.90
52103;DHT22;38101;53.126;6.878;2022-09-01T10:42:40;20.70;99.90
52103;DHT22;38101;53.126;6.878;2022-09-01T10:45:28;20.80;99.90
52103;DHT22;38101;53.126;6.878;2022-09-01T10:47:56;20.80;99.30
52103;DHT22;38101;53.126;6.878;2022-09-01T10:50:29;20.90;99.90
52103;DHT22;38101;53.126;6.878;2022-09-01T10:53:02;21.00;99.80
52103;DHT22;38101;53.126;6.878;2022-09-01T10:55:35;21.10;99.50
52103;DHT22;38101;53.126;6.878;2022-09-01T11:00:46;21.30;98.70
52103;DHT22;38101;53.126;6.878;2022-09-01T11:08:22;21.60;96.60
52103;DHT22;38101;53.126;6.878;2022-09-01T11:13:47;21.60;96.50
52103;DHT22;38101;53.126;6.878;2022-09-01T11:18:55;21.50;96.50
52103;DHT22;38101;53.126;6.878;2022-09-01T11:21:39;21.50;96.80
52103;DHT22;38101;53.126;6.878;2022-09-01T11:30:02;21.90;96.60
52103;DHT22;38101;53.126;6.878;2022-09-01T11:32:35;21.80;95.80
52103;DHT22;38101;53.126;6.878;2022-09-01T11:35:11;21.80;96.20
52103;DHT22;38101;53.126;6.878;2022-09-01T11:37:39;21.80;96.40
52103;DHT22;38101;53.126;6.878;2022-09-01T11:40:05;21.80;96.10
52103;DHT22;38101;53.126;6.878;2022-09-01T11:42:41;21.90;96.40
52103;DHT22;38101;53.126;6.878;2022-09-01T11:47:41;22.20;96.30
52103;DHT22;38101;53.126;6.878;2022-09-01T11:52:40;22.40;95.60
52103;DHT22;38101;53.126;6.878;2022-09-01T11:55:07;22.50;95.20
52103;DHT22;38101;53.126;6.878;2022-09-01T11:57:37;22.40;94.80
52103;DHT22;38101;53.126;6.878;2022-09-01T12:00:12;22.40;94.90
52103;DHT22;38101;53.126;6.878;2022-09-01T12:02:47;22.40;95.10
52103;DHT22;38101;53.126;6.878;2022-09-01T12:05:29;22.40;94.80
52103;DHT22;38101;53.126;6.878;2022-09-01T12:07:56;22.40;94.50
52103;DHT22;38101;53.126;6.878;2022-09-01T12:10:35;22.30;94.50
52103;DHT22;38101;53.126;6.878;2022-09-01T12:13:08;22.20;94.40
52103;DHT22;38101;53.126;6.878;2022-09-01T12:15:37;22.10;94.10
52103;DHT22;38101;53.126;6.878;2022-09-01T12:20:38;22.10;94.20
52103;DHT22;38101;53.126;6.878;2022-09-01T12:25:43;22.10;93.60
52103;DHT22;38101;53.126;6.878;2022-09-01T12:28:10;22.20;93.80
52103;DHT22;38101;53.126;6.878;2022-09-01T12:30:36;22.30;93.80
52103;DHT22;38101;53.126;6.878;2022-09-01T12:33:06;22.40;94.00
52103;DHT22;38101;53.126;6.878;2022-09-01T12:35:34;22.60;94.40
52103;DHT22;38101;53.126;6.878;2022-09-01T12:38:22;22.80;94.40
52103;DHT22;38101;53.126;6.878;2022-09-01T12:40:52;22.90;93.50
52103;DHT22;38101;53.126;6.878;2022-09-01T12:43:38;22.80;94.00
52103;DHT22;38101;53.126;6.878;2022-09-01T12:46:07;22.80;93.60
52103;DHT22;38101;53.126;6.878;2022-09-01T12:48:37;22.90;94.00
52103;DHT22;38101;53.126;6.878;2022-09-01T12:51:17;22.90;93.70
52103;DHT22;38101;53.126;6.878;2022-09-01T12:53:54;23.00;93.50
52103;DHT22;38101;53.126;6.878;2022-09-01T12:56:36;23.10;93.30
52103;DHT22;38101;53.126;6.878;2022-09-01T12:59:13;23.20;93.10
52103;DHT22;38101;53.126;6.878;2022-09-01T13:01:40;23.30;93.20
52103;DHT22;38101;53.126;6.878;2022-09-01T13:04:13;23.30;93.40
52103;DHT22;38101;53.126;6.878;2022-09-01T13:06:39;23.30;93.10
52103;DHT22;38101;53.126;6.878;2022-09-01T13:09:05;23.30;93.20
52103;DHT22;38101;53.126;6.878;2022-09-01T13:11:31;23.40;92.50
52103;DHT22;38101;53.126;6.878;2022-09-01T13:13:57;23.50;92.50
52103;DHT22;38101;53.126;6.878;2022-09-01T13:16:23;23.50;92.50
52103;DHT22;38101;53.126;6.878;2022-09-01T13:18:49;23.60;92.80
52103;DHT22;38101;53.126;6.878;2022-09-01T13:21:14;23.70;92.40
52103;DHT22;38101;53.126;6.878;2022-09-01T13:23:40;23.80;92.20
52103;DHT22;38101;53.126;6.878;2022-09-01T13:26:06;24.00;91.90
52103;DHT22;38101;53.126;6.878;2022-09-01T13:28:32;24.10;92.10
52103;DHT22;38101;53.126;6.878;2022-09-01T13:31:03;24.30;92.10
52103;DHT22;38101;53.126;6.878;2022-09-01T13:33:34;24.40;90.40
52103;DHT22;38101;53.126;6.878;2022-09-01T13:36:02;24.20;90.60
52103;DHT22;38101;53.126;6.878;2022-09-01T13:38:29;24.10;90.30
52103;DHT22;38101;53.126;6.878;2022-09-01T13:40:57;23.90;90.20
52103;DHT22;38101;53.126;6.878;2022-09-01T13:43:23;23.70;90.80
52103;DHT22;38101;53.126;6.878;2022-09-01T13:45:51;23.60;90.80
52103;DHT22;38101;53.126;6.878;2022-09-01T13:48:17;23.50;90.60
52103;DHT22;38101;53.126;6.878;2022-09-01T13:50:45;23.30;90.20
52103;DHT22;38101;53.126;6.878;2022-09-01T13:53:11;23.30;90.10
52103;DHT22;38101;53.126;6.878;2022-09-01T13:55:39;23.20;89.60
52103;DHT22;38101;53.126;6.878;2022-09-01T13:58:05;23.10;90.00
52103;DHT22;38101;53.126;6.878;2022-09-01T14:00:37;23.00;90.30
52103;DHT22;38101;53.126;6.878;2022-09-01T14:03:09;22.90;90.60
52103;DHT22;38101;53.126;6.878;2022-09-01T14:05:37;22.90;90.80
52103;DHT22;38101;53.126;6.878;2022-09-01T14:08:04;23.10;90.80
52103;DHT22;38101;53.126;6.878;2022-09-01T14:10:31;23.20;90.60
52103;DHT22;38101;53.126;6.878;2022-09-01T14:12:58;23.30;90.20
52103;DHT22;38101;53.126;6.878;2022-09-01T14:15:25;23.30;90.30
52103;DHT22;38101;53.126;6.878;2022-09-01T14:17:53;23.20;90.60
52103;DHT22;38101;53.126;6.878;2022-09-01T14:20:26;23.20;90.00
52103;DHT22;38101;53.126;6.878;2022-09-01T14:22:56;23.00;89.80
52103;DHT22;38101;53.126;6.878;2022-09-01T14:25:22;23.00;90.20
52103;DHT22;38101;53.126;6.878;2022-09-01T14:27:48;23.10;89.60
52103;DHT22;38101;53.126;6.878;2022-09-01T14:30:20;23.20;88.70
52103;DHT22;38101;53.126;6.878;2022-09-01T14:32:47;23.20;89.30
52103;DHT22;38101;53.126;6.878;2022-09-01T14:35:14;23.20;89.00
52103;DHT22;38101;53.126;6.878;2022-09-01T14:37:40;23.20;88.70
52103;DHT22;38101;53.126;6.878;2022-09-01T14:40:08;23.10;88.40
52103;DHT22;38101;53.126;6.878;2022-09-01T14:42:34;23.20;88.70
52103;DHT22;38101;53.126;6.878;2022-09-01T14:45:02;23.20;89.30
52103;DHT22;38101;53.126;6.878;2022-09-01T14:47:29;23.30;88.50
52103;DHT22;38101;53.126;6.878;2022-09-01T14:49:56;23.40;87.40
52103;DHT22;38101;53.126;6.878;2022-09-01T14:52:22;23.30;86.20
52103;DHT22;38101;53.126;6.878;2022-09-01T14:54:47;23.20;86.60
52103;DHT22;38101;53.126;6.878;2022-09-01T14:57:14;23.20;86.20
52103;DHT22;38101;53.126;6.878;2022-09-01T14:59:40;23.10;86.10
52103;DHT22;38101;53.126;6.878;2022-09-01T15:02:08;23.00;85.70
52103;DHT22;38101;53.126;6.878;2022-09-01T15:04:34;23.00;86.30
52103;DHT22;38101;53.126;6.878;2022-09-01T15:07:00;23.00;86.50
52103;DHT22;38101;53.126;6.878;2022-09-01T15:09:30;23.00;86.00
52103;DHT22;38101;53.126;6.878;2022-09-01T15:11:55;22.90;85.80
52103;DHT22;38101;53.126;6.878;2022-09-01T15:14:22;22.90;85.80
52103;DHT22;38101;53.126;6.878;2022-09-01T15:16:48;22.90;86.10
52103;DHT22;38101;53.126;6.878;2022-09-01T15:19:13;23.00;86.60
52103;DHT22;38101;53.126;6.878;2022-09-01T15:21:42;23.00;86.50
52103;DHT22;38101;53.126;6.878;2022-09-01T15:24:09;23.10;85.90
52103;DHT22;38101;53.126;6.878;2022-09-01T15:26:35;23.20;86.30
52103;DHT22;38101;53.126;6.878;2022-09-01T15:29:01;23.40;86.80
52103;DHT22;38101;53.126;6.878;2022-09-01T15:34:04;23.60;85.70
52103;DHT22;38101;53.126;6.878;2022-09-01T15:36:30;23.70;86.10
52103;DHT22;38101;53.126;6.878;2022-09-01T15:38:57;23.80;84.20
52103;DHT22;38101;53.126;6.878;2022-09-01T15:41:29;23.80;83.10
52103;DHT22;38101;53.126;6.878;2022-09-01T15:43:55;23.90;81.90
52103;DHT22;38101;53.126;6.878;2022-09-01T15:46:22;23.90;82.40
52103;DHT22;38101;53.126;6.878;2022-09-01T15:48:55;23.90;82.80
52103;DHT22;38101;53.126;6.878;2022-09-01T15:53:51;24.00;82.10
52103;DHT22;38101;53.126;6.878;2022-09-01T15:56:17;24.10;81.40
52103;DHT22;38101;53.126;6.878;2022-09-01T15:58:47;24.00;81.30
52103;DHT22;38101;53.126;6.878;2022-09-01T16:01:14;24.10;81.50
52103;DHT22;38101;53.126;6.878;2022-09-01T16:03:40;24.10;81.80
52103;DHT22;38101;53.126;6.878;2022-09-01T16:06:06;24.10;81.20
52103;DHT22;38101;53.126;6.878;2022-09-01T16:08:33;24.10;81.20
52103;DHT22;38101;53.126;6.878;2022-09-01T16:10:59;24.20;81.20
52103;DHT22;38101;53.126;6.878;2022-09-01T16:13:25;24.30;81.40
52103;DHT22;38101;53.126;6.878;2022-09-01T16:16:00;24.30;80.50
52103;DHT22;38101;53.126;6.878;2022-09-01T16:18:38;24.30;80.20
52103;DHT22;38101;53.126;6.878;2022-09-01T16:24:08;24.40;78.90
52103;DHT22;38101;53.126;6.878;2022-09-01T16:26:36;24.40;79.70
52103;DHT22;38101;53.126;6.878;2022-09-01T16:29:07;24.40;79.60
52103;DHT22;38101;53.126;6.878;2022-09-01T16:31:34;24.40;79.90
52103;DHT22;38101;53.126;6.878;2022-09-01T16:34:04;24.30;79.30
52103;DHT22;38101;53.126;6.878;2022-09-01T16:36:58;24.40;79.30
52103;DHT22;38101;53.126;6.878;2022-09-01T16:39:48;24.50;80.20
52103;DHT22;38101;53.126;6.878;2022-09-01T16:42:37;24.50;79.60
52103;DHT22;38101;53.126;6.878;2022-09-01T17:03:35;24.30;78.10
52103;DHT22;38101;53.126;6.878;2022-09-01T17:08:57;24.20;78.90
52103;DHT22;38101;53.126;6.878;2022-09-01T17:11:40;24.20;78.60
52103;DHT22;38101;53.126;6.878;2022-09-01T17:14:13;24.10;79.40
52103;DHT22;38101;53.126;6.878;2022-09-01T17:16:51;24.10;80.10
52103;DHT22;38101;53.126;6.878;2022-09-01T17:19:20;24.00;79.80